Terminal Aerodrome Forecast
Issued by NWS Sterling, VA

Home | Current Version | Previous Version | Text Only | Print | Product List | Glossary On
Versions: 1 2 3 4 5 6 7 8 9 10 11 12 13 14 15 16 17 18 19
000
FTUS41 KLWX 290527
TAFBWI
TAF
KBWI 290527Z 2906/3012 00000KT P6SM FEW250
     FM291800 16007KT P6SM BKN120
     FM291900 16007KT P6SM SHRA BKN100
     FM300300 16004KT 6SM SHRA OVC020
     FM300400 17004KT 3SM SHRA BR OVC020
     FM301000 VRB03KT 6SM -SHRA BR OVC010=

USA.gov is the U.S. government's official web portal to all federal, state and local government web resources and services.